• Join FlightAware (Why Join?)
  • Login
  • US Flag 
03:55PM EDT


 

Airport Tracker/Info


-or-


 

Live Flight TrackerFlight Track Log ✈ JBU33 ✈ 24-Jun-2013 ✈ KBTV - KJFK

Flight Track Log - Related Links

Times and Time Zones

All times are in EDT time to prevent confusion due to time zone crossing. See the JBU33 flight status page for this flight to view local times or setup timezone preferences in your user account.

Time Position Orientation Groundspeed Altitude Reporting Facility
EDT Latitude Longitude Course Direction KTS MPH feet Rate Location/Type
02:01PM 44.3347 -73.0553 196° South 269 310 6,400  Level Boston Center
02:02PM 44.1567 -73.2663 195° South  Level FlightAware Approximate
02:02PM 44.2597 -73.0228 163° South 280 322 8,900  Level Boston Center
02:03PM 44.0787 -73.2955 195° South  Level FlightAware Approximate
02:03PM 44.1831 -72.9583 149° Southeast 301 346 11,400  Level Boston Center
02:04PM 44.0003 -73.3222 194° South  Level FlightAware Approximate
02:04PM 44.1000 -72.8736 144° Southeast 348 400 13,600  Level Boston Center
02:05PM 43.9217 -73.3483 193° South  Level FlightAware Approximate
02:05PM 44.0086 -72.7981 149° Southeast 377 434 16,700  Level Boston Center
02:06PM 43.8441 -73.3792 196° South  Level FlightAware Approximate
02:06PM 43.9108 -72.7456 159° South 377 434 19,000  Level Boston Center
02:07PM 43.8172 -72.6906 157° South 394 453 21,000 1,620 Climbing Boston Center
02:08PM 43.7108 -72.7131 189° South 387 445 22,300 960 Climbing Boston Center
02:09PM 43.6025 -72.7325 187° South 387 445 23,000 660 Climbing Boston Center
02:10PM 43.4900 -72.7092 171° South 400 460 23,700 1,260 Climbing Boston Center
02:11PM 43.3756 -72.7028 178° South 412 474 25,600 1,140 Climbing Boston Center
02:12PM 43.2731 -72.7708 206° Southwest 397 457 26,000 180 Climbing Boston Center
02:13PM 43.1728 -72.8414 207° Southwest 402 463 26,000  Level Boston Center
02:14PM 43.0622 -72.9089 204° Southwest 407 468 26,000  Level Boston Center
02:15PM 42.9619 -72.9764 206° Southwest 407 468 26,000  Level Boston Center
02:16PM 42.8739 -73.0406 208° Southwest 396 456 26,000  Level Boston Center
02:17PM 42.7736 -73.1075 206° Southwest 396 456 26,000  Level Boston Center
02:18PM 42.6753 -73.1744 207° Southwest 396 456 26,000  Level Boston Center
02:19PM 42.5622 -73.2406 203° Southwest 403 464 26,000  Level Boston Center
02:20PM 42.4617 -73.3042 205° Southwest 403 464 26,000  Level Boston Center
02:21PM 42.3589 -73.3842 210° Southwest 408 470 26,000  Level Boston Center
02:22PM 42.2628 -73.4358 202° Southwest 402 463 26,000  Level Boston Center
02:23PM 42.1578 -73.5072 207° Southwest 402 463 26,000  Level Boston Center
02:24PM 42.0572 -73.5753 207° Southwest 408 470 26,000  Level Boston Center
02:25PM 41.9564 -73.6406 206° Southwest 408 470 26,000  Level Boston Center
02:28PM 41.6719 -73.8203 205° Southwest 400 460 26,000 -480 Level New York Center
02:29PM 41.5806 -73.8967 212° Southwest 400 460 24,200 -1,920 Descending New York Center
02:30PM 41.4931 -73.9700 212° Southwest 395 455 22,200 -2,040 Descending New York Center
02:31PM 41.3992 -74.0514 213° Southwest 395 455 20,100 -1,140 Descending New York Center
02:32PM 41.2961 -74.0875 195° South 383 441 20,000 -540 Descending New York Center
02:33PM 41.1939 -74.1019 186° South 383 441 19,100 -660 Descending New York Center
02:33PM 41.1167 -74.1000 179° South 368 423 19,000 -120 Descending New York TRACON
02:34PM 41.0167 -74.1167 187° South 366 421 19,000 -600 Level New York TRACON
02:35PM 40.9167 -74.1167 180° South 327 376 17,900 -1,320 Descending New York TRACON
02:36PM 40.8500 -74.0500 143° Southeast 321 369 16,400 -1,320 Descending New York TRACON
02:37PM 40.7833 -73.9667 137° Southeast 319 367 15,300 -1,500 Descending New York TRACON
02:38PM 40.7333 -73.8667 123° Southeast 320 368 13,500 -1,200 Descending New York TRACON
02:39PM 40.7000 -73.7500 111° Southeast 354 407 12,900 -780 Descending New York TRACON
02:40PM 40.6500 -73.6667 128° Southeast 359 413 12,000 -1,080 Descending New York TRACON
02:41PM 40.5833 -73.6000 143° Southeast 300 345 10,900 -1,560 Descending New York TRACON
02:42PM 40.5000 -73.5667 163° South 296 341 9,100 -1,860 Descending New York TRACON
02:43PM 40.4333 -73.5833 191° South 283 326 7,200 -1,620 Descending New York TRACON
02:44PM 40.3500 -73.6167 197° South 259 298 5,700 -1,200 Descending New York TRACON
02:45PM 40.3000 -73.6500 207° Southwest 230 265 4,700 -1,080 Descending New York TRACON
02:46PM 40.2333 -73.6833 201° Southwest 219 252 3,600 -900 Descending New York TRACON
02:47PM 40.2333 -73.7500 270° West 219 252 3,000 -300 Descending New York TRACON
02:48PM 40.2667 -73.8167 303° West 219 252 3,000  Level New York TRACON
02:49PM 40.3167 -73.8667 323° Northwest 220 253 3,000  Level New York TRACON
02:50PM 40.3500 -73.9167 311° West 186 214 3,000  Level New York TRACON
02:51PM 40.3833 -73.9667 311° West 191 220 3,000  Level New York TRACON
02:52PM 40.4333 -73.9667 360° North 195 224 3,000  Level New York TRACON
02:53PM 40.4833 -73.9833 346° North 176 203 3,000  Level New York TRACON
02:54PM 40.5167 -73.9667 21° North 176 203 3,000  Level New York TRACON
02:55PM 40.5667 -73.9333 27° Northeast 175 201 3,000  Level New York TRACON